sensor_id;sensor_type;location;lat;lon;timestamp;P1;durP1;ratioP1;P2;durP2;ratioP2
38111;SDS011;64011;56.312;44.048;2023-04-24T00:02:00;9.07;;;2.50;;
38111;SDS011;64011;56.312;44.048;2023-04-24T00:04:03;8.07;;;2.35;;
38111;SDS011;64011;56.312;44.048;2023-04-24T00:06:04;8.90;;;2.53;;
38111;SDS011;64011;56.312;44.048;2023-04-24T00:08:05;6.35;;;2.35;;
38111;SDS011;64011;56.312;44.048;2023-04-24T00:10:06;6.85;;;2.40;;
38111;SDS011;64011;56.312;44.048;2023-04-24T00:12:08;8.18;;;2.45;;
38111;SDS011;64011;56.312;44.048;2023-04-24T00:14:09;8.88;;;2.42;;
38111;SDS011;64011;56.312;44.048;2023-04-24T00:16:10;11.07;;;2.28;;
38111;SDS011;64011;56.312;44.048;2023-04-24T00:18:11;7.47;;;2.45;;
38111;SDS011;64011;56.312;44.048;2023-04-24T00:20:13;11.13;;;3.13;;
38111;SDS011;64011;56.312;44.048;2023-04-24T00:22:15;8.10;;;2.60;;
38111;SDS011;64011;56.312;44.048;2023-04-24T00:24:16;7.10;;;2.25;;
38111;SDS011;64011;56.312;44.048;2023-04-24T00:26:17;10.68;;;2.70;;
38111;SDS011;64011;56.312;44.048;2023-04-24T00:28:17;10.68;;;2.55;;
38111;SDS011;64011;56.312;44.048;2023-04-24T00:30:18;6.25;;;2.55;;
38111;SDS011;64011;56.312;44.048;2023-04-24T00:32:19;9.98;;;2.38;;
38111;SDS011;64011;56.312;44.048;2023-04-24T00:34:20;8.95;;;2.50;;
38111;SDS011;64011;56.312;44.048;2023-04-24T00:36:23;5.22;;;2.40;;
38111;SDS011;64011;56.312;44.048;2023-04-24T00:38:24;9.55;;;2.70;;
38111;SDS011;64011;56.312;44.048;2023-04-24T00:40:24;7.10;;;2.58;;
38111;SDS011;64011;56.312;44.048;2023-04-24T00:42:25;8.15;;;2.97;;
38111;SDS011;64011;56.312;44.048;2023-04-24T00:44:26;7.93;;;2.50;;
38111;SDS011;64011;56.312;44.048;2023-04-24T00:46:27;6.88;;;2.58;;
38111;SDS011;64011;56.312;44.048;2023-04-24T00:48:29;11.23;;;2.90;;
38111;SDS011;64011;56.312;44.048;2023-04-24T00:50:31;7.32;;;2.78;;
38111;SDS011;64011;56.312;44.048;2023-04-24T00:52:33;8.13;;;2.60;;
38111;SDS011;64011;56.312;44.048;2023-04-24T00:54:35;8.13;;;2.70;;
38111;SDS011;64011;56.312;44.048;2023-04-24T00:56:36;9.23;;;2.53;;
38111;SDS011;64011;56.312;44.048;2023-04-24T00:58:36;8.82;;;2.40;;
38111;SDS011;64011;56.312;44.048;2023-04-24T01:00:37;8.10;;;2.90;;
38111;SDS011;64011;56.312;44.048;2023-04-24T01:02:39;7.45;;;2.40;;
38111;SDS011;64011;56.312;44.048;2023-04-24T01:04:40;9.13;;;2.78;;
38111;SDS011;64011;56.312;44.048;2023-04-24T01:06:41;9.98;;;2.80;;
38111;SDS011;64011;56.312;44.048;2023-04-24T01:08:45;12.07;;;2.72;;
38111;SDS011;64011;56.312;44.048;2023-04-24T01:10:47;11.40;;;2.55;;
38111;SDS011;64011;56.312;44.048;2023-04-24T01:12:48;7.82;;;2.67;;
38111;SDS011;64011;56.312;44.048;2023-04-24T01:14:49;8.57;;;3.00;;
38111;SDS011;64011;56.312;44.048;2023-04-24T01:16:50;7.38;;;2.55;;
38111;SDS011;64011;56.312;44.048;2023-04-24T01:18:50;9.32;;;3.22;;
38111;SDS011;64011;56.312;44.048;2023-04-24T01:20:53;8.70;;;2.85;;
38111;SDS011;64011;56.312;44.048;2023-04-24T01:22:56;14.15;;;3.45;;
38111;SDS011;64011;56.312;44.048;2023-04-24T01:24:56;8.48;;;2.70;;
38111;SDS011;64011;56.312;44.048;2023-04-24T01:26:58;7.65;;;2.95;;
38111;SDS011;64011;56.312;44.048;2023-04-24T01:28:58;10.15;;;3.00;;
38111;SDS011;64011;56.312;44.048;2023-04-24T01:31:00;9.10;;;2.90;;
38111;SDS011;64011;56.312;44.048;2023-04-24T01:33:00;10.15;;;2.80;;
38111;SDS011;64011;56.312;44.048;2023-04-24T01:35:01;12.60;;;3.22;;
38111;SDS011;64011;56.312;44.048;2023-04-24T01:37:04;10.07;;;2.78;;
38111;SDS011;64011;56.312;44.048;2023-04-24T01:39:07;9.75;;;2.90;;
38111;SDS011;64011;56.312;44.048;2023-04-24T01:41:08;10.75;;;2.70;;
38111;SDS011;64011;56.312;44.048;2023-04-24T01:43:08;11.05;;;3.17;;
38111;SDS011;64011;56.312;44.048;2023-04-24T01:45:10;10.23;;;2.95;;
38111;SDS011;64011;56.312;44.048;2023-04-24T01:47:11;7.25;;;2.70;;
38111;SDS011;64011;56.312;44.048;2023-04-24T01:49:12;8.18;;;2.58;;
38111;SDS011;64011;56.312;44.048;2023-04-24T01:51:13;8.43;;;2.53;;
38111;SDS011;64011;56.312;44.048;2023-04-24T01:53:14;12.77;;;3.25;;
38111;SDS011;64011;56.312;44.048;2023-04-24T01:55:16;7.95;;;2.47;;
38111;SDS011;64011;56.312;44.048;2023-04-24T01:57:18;10.18;;;2.72;;
38111;SDS011;64011;56.312;44.048;2023-04-24T01:59:18;11.07;;;3.00;;
38111;SDS011;64011;56.312;44.048;2023-04-24T02:01:21;10.07;;;3.45;;
38111;SDS011;64011;56.312;44.048;2023-04-24T02:03:24;10.45;;;2.60;;
38111;SDS011;64011;56.312;44.048;2023-04-24T02:05:25;7.75;;;2.67;;
38111;SDS011;64011;56.312;44.048;2023-04-24T02:07:26;6.88;;;2.65;;
38111;SDS011;64011;56.312;44.048;2023-04-24T02:09:27;11.80;;;2.90;;
38111;SDS011;64011;56.312;44.048;2023-04-24T02:11:29;8.20;;;2.80;;
38111;SDS011;64011;56.312;44.048;2023-04-24T02:13:32;8.98;;;2.85;;
38111;SDS011;64011;56.312;44.048;2023-04-24T02:15:33;10.20;;;3.05;;
38111;SDS011;64011;56.312;44.048;2023-04-24T02:17:34;8.55;;;3.03;;
38111;SDS011;64011;56.312;44.048;2023-04-24T02:19:35;8.77;;;2.90;;
38111;SDS011;64011;56.312;44.048;2023-04-24T02:21:35;12.48;;;3.00;;
38111;SDS011;64011;56.312;44.048;2023-04-24T02:23:36;5.90;;;2.80;;
38111;SDS011;64011;56.312;44.048;2023-04-24T02:25:37;8.20;;;2.80;;
38111;SDS011;64011;56.312;44.048;2023-04-24T02:27:39;8.68;;;2.90;;
38111;SDS011;64011;56.312;44.048;2023-04-24T02:29:40;10.40;;;3.42;;
38111;SDS011;64011;56.312;44.048;2023-04-24T02:31:41;8.70;;;3.00;;
38111;SDS011;64011;56.312;44.048;2023-04-24T02:33:42;10.73;;;3.47;;
38111;SDS011;64011;56.312;44.048;2023-04-24T02:35:43;9.77;;;2.95;;
38111;SDS011;64011;56.312;44.048;2023-04-24T02:37:44;8.00;;;2.85;;
38111;SDS011;64011;56.312;44.048;2023-04-24T02:39:45;11.15;;;3.10;;
38111;SDS011;64011;56.312;44.048;2023-04-24T02:41:46;12.25;;;3.13;;
38111;SDS011;64011;56.312;44.048;2023-04-24T02:43:49;10.75;;;3.50;;
38111;SDS011;64011;56.312;44.048;2023-04-24T02:45:51;9.50;;;2.70;;
38111;SDS011;64011;56.312;44.048;2023-04-24T02:47:56;9.68;;;3.42;;
38111;SDS011;64011;56.312;44.048;2023-04-24T02:50:00;9.13;;;3.10;;
38111;SDS011;64011;56.312;44.048;2023-04-24T02:52:06;9.23;;;2.90;;
38111;SDS011;64011;56.312;44.048;2023-04-24T02:54:08;9.77;;;3.30;;
38111;SDS011;64011;56.312;44.048;2023-04-24T02:56:10;9.30;;;3.13;;
38111;SDS011;64011;56.312;44.048;2023-04-24T02:58:12;8.90;;;3.08;;
38111;SDS011;64011;56.312;44.048;2023-04-24T03:00:16;9.80;;;2.95;;
38111;SDS011;64011;56.312;44.048;2023-04-24T03:02:17;10.55;;;3.30;;
38111;SDS011;64011;56.312;44.048;2023-04-24T03:04:18;9.82;;;2.83;;
38111;SDS011;64011;56.312;44.048;2023-04-24T03:06:19;10.98;;;3.05;;
38111;SDS011;64011;56.312;44.048;2023-04-24T03:08:20;11.88;;;3.10;;
38111;SDS011;64011;56.312;44.048;2023-04-24T03:10:21;11.60;;;3.45;;
38111;SDS011;64011;56.312;44.048;2023-04-24T03:12:22;13.10;;;3.42;;
38111;SDS011;64011;56.312;44.048;2023-04-24T03:14:23;10.38;;;3.50;;
38111;SDS011;64011;56.312;44.048;2023-04-24T03:16:25;13.23;;;3.58;;
38111;SDS011;64011;56.312;44.048;2023-04-24T03:18:26;12.23;;;3.50;;
38111;SDS011;64011;56.312;44.048;2023-04-24T03:20:27;10.52;;;3.35;;
38111;SDS011;64011;56.312;44.048;2023-04-24T03:22:28;12.77;;;3.25;;
38111;SDS011;64011;56.312;44.048;2023-04-24T03:24:29;10.65;;;3.40;;
38111;SDS011;64011;56.312;44.048;2023-04-24T03:26:29;11.05;;;3.15;;
38111;SDS011;64011;56.312;44.048;2023-04-24T03:28:30;11.93;;;3.67;;
38111;SDS011;64011;56.312;44.048;2023-04-24T03:30:31;8.73;;;3.17;;
38111;SDS011;64011;56.312;44.048;2023-04-24T03:32:33;9.98;;;3.20;;
38111;SDS011;64011;56.312;44.048;2023-04-24T03:34:34;12.57;;;3.08;;
38111;SDS011;64011;56.312;44.048;2023-04-24T03:36:35;9.13;;;2.92;;
38111;SDS011;64011;56.312;44.048;2023-04-24T03:38:36;14.77;;;3.35;;
38111;SDS011;64011;56.312;44.048;2023-04-24T03:40:37;12.27;;;3.95;;
38111;SDS011;64011;56.312;44.048;2023-04-24T03:42:38;12.38;;;3.42;;
38111;SDS011;64011;56.312;44.048;2023-04-24T03:44:38;12.85;;;3.25;;
38111;SDS011;64011;56.312;44.048;2023-04-24T03:46:39;17.48;;;3.13;;
38111;SDS011;64011;56.312;44.048;2023-04-24T03:48:41;12.23;;;2.95;;
38111;SDS011;64011;56.312;44.048;2023-04-24T03:50:42;15.63;;;3.65;;
38111;SDS011;64011;56.312;44.048;2023-04-24T03:52:43;15.48;;;3.28;;
38111;SDS011;64011;56.312;44.048;2023-04-24T03:54:44;11.65;;;3.00;;
38111;SDS011;64011;56.312;44.048;2023-04-24T03:56:45;13.88;;;3.08;;
38111;SDS011;64011;56.312;44.048;2023-04-24T03:58:46;8.90;;;2.70;;
38111;SDS011;64011;56.312;44.048;2023-04-24T04:00:47;14.98;;;3.25;;
38111;SDS011;64011;56.312;44.048;2023-04-24T04:02:48;12.77;;;2.95;;
38111;SDS011;64011;56.312;44.048;2023-04-24T04:04:50;8.75;;;2.90;;
38111;SDS011;64011;56.312;44.048;2023-04-24T04:06:51;12.15;;;3.38;;
38111;SDS011;64011;56.312;44.048;2023-04-24T04:08:52;9.18;;;2.65;;
38111;SDS011;64011;56.312;44.048;2023-04-24T04:10:53;11.43;;;2.85;;
38111;SDS011;64011;56.312;44.048;2023-04-24T04:12:54;10.07;;;2.80;;
38111;SDS011;64011;56.312;44.048;2023-04-24T04:14:55;13.57;;;3.28;;
38111;SDS011;64011;56.312;44.048;2023-04-24T04:16:55;13.52;;;3.10;;
38111;SDS011;64011;56.312;44.048;2023-04-24T04:18:57;11.45;;;3.47;;
38111;SDS011;64011;56.312;44.048;2023-04-24T04:20:59;13.45;;;3.60;;
38111;SDS011;64011;56.312;44.048;2023-04-24T04:23:00;11.90;;;3.63;;
38111;SDS011;64011;56.312;44.048;2023-04-24T04:25:00;11.43;;;3.35;;
38111;SDS011;64011;56.312;44.048;2023-04-24T04:27:03;15.30;;;4.20;;
38111;SDS011;64011;56.312;44.048;2023-04-24T04:29:04;10.30;;;3.60;;
38111;SDS011;64011;56.312;44.048;2023-04-24T04:31:05;11.75;;;3.58;;
38111;SDS011;64011;56.312;44.048;2023-04-24T04:33:06;15.50;;;4.07;;
38111;SDS011;64011;56.312;44.048;2023-04-24T04:35:07;14.77;;;4.30;;
38111;SDS011;64011;56.312;44.048;2023-04-24T04:37:09;14.65;;;4.18;;
38111;SDS011;64011;56.312;44.048;2023-04-24T04:39:10;14.15;;;5.03;;
38111;SDS011;64011;56.312;44.048;2023-04-24T04:41:11;15.30;;;5.13;;
38111;SDS011;64011;56.312;44.048;2023-04-24T04:43:12;13.68;;;4.80;;
38111;SDS011;64011;56.312;44.048;2023-04-24T04:45:12;15.20;;;4.80;;
38111;SDS011;64011;56.312;44.048;2023-04-24T04:47:13;18.02;;;5.15;;
38111;SDS011;64011;56.312;44.048;2023-04-24T04:49:14;14.88;;;4.95;;
38111;SDS011;64011;56.312;44.048;2023-04-24T04:51:15;16.67;;;4.95;;
38111;SDS011;64011;56.312;44.048;2023-04-24T04:53:17;13.18;;;4.40;;
38111;SDS011;64011;56.312;44.048;2023-04-24T04:55:18;18.10;;;5.30;;
38111;SDS011;64011;56.312;44.048;2023-04-24T04:57:20;14.73;;;4.88;;
38111;SDS011;64011;56.312;44.048;2023-04-24T04:59:21;15.55;;;5.07;;
38111;SDS011;64011;56.312;44.048;2023-04-24T05:01:22;15.35;;;4.75;;
38111;SDS011;64011;56.312;44.048;2023-04-24T05:03:23;17.75;;;5.05;;
38111;SDS011;64011;56.312;44.048;2023-04-24T05:05:24;16.23;;;5.85;;
38111;SDS011;64011;56.312;44.048;2023-04-24T05:07:24;17.70;;;5.63;;
38111;SDS011;64011;56.312;44.048;2023-04-24T05:09:27;17.48;;;5.10;;
38111;SDS011;64011;56.312;44.048;2023-04-24T05:11:27;15.80;;;4.93;;
38111;SDS011;64011;56.312;44.048;2023-04-24T05:13:28;15.95;;;5.13;;
38111;SDS011;64011;56.312;44.048;2023-04-24T05:15:29;14.55;;;5.00;;
38111;SDS011;64011;56.312;44.048;2023-04-24T05:17:30;16.48;;;5.53;;
38111;SDS011;64011;56.312;44.048;2023-04-24T05:19:31;19.83;;;5.55;;
38111;SDS011;64011;56.312;44.048;2023-04-24T05:21:32;14.52;;;5.28;;
38111;SDS011;64011;56.312;44.048;2023-04-24T05:23:32;21.15;;;5.97;;
38111;SDS011;64011;56.312;44.048;2023-04-24T05:25:35;14.48;;;5.20;;
38111;SDS011;64011;56.312;44.048;2023-04-24T05:27:35;17.45;;;5.28;;
38111;SDS011;64011;56.312;44.048;2023-04-24T05:29:36;14.27;;;5.38;;
38111;SDS011;64011;56.312;44.048;2023-04-24T05:31:37;17.25;;;5.93;;
38111;SDS011;64011;56.312;44.048;2023-04-24T05:33:38;21.02;;;5.85;;
38111;SDS011;64011;56.312;44.048;2023-04-24T05:35:40;18.67;;;5.80;;
38111;SDS011;64011;56.312;44.048;2023-04-24T05:37:40;18.13;;;5.75;;
38111;SDS011;64011;56.312;44.048;2023-04-24T05:39:41;16.30;;;5.43;;
38111;SDS011;64011;56.312;44.048;2023-04-24T05:41:44;14.55;;;5.50;;
38111;SDS011;64011;56.312;44.048;2023-04-24T05:43:44;15.88;;;5.22;;
38111;SDS011;64011;56.312;44.048;2023-04-24T05:45:45;17.55;;;5.15;;
38111;SDS011;64011;56.312;44.048;2023-04-24T05:47:46;15.25;;;5.50;;
38111;SDS011;64011;56.312;44.048;2023-04-24T05:49:47;15.80;;;5.00;;
38111;SDS011;64011;56.312;44.048;2023-04-24T05:51:48;13.43;;;5.00;;
38111;SDS011;64011;56.312;44.048;2023-04-24T05:53:48;14.43;;;4.82;;
38111;SDS011;64011;56.312;44.048;2023-04-24T05:55:49;14.55;;;5.20;;
38111;SDS011;64011;56.312;44.048;2023-04-24T05:57:52;20.00;;;5.35;;
38111;SDS011;64011;56.312;44.048;2023-04-24T05:59:52;18.75;;;5.60;;
38111;SDS011;64011;56.312;44.048;2023-04-24T06:01:53;16.20;;;5.03;;
38111;SDS011;64011;56.312;44.048;2023-04-24T06:03:54;16.77;;;4.70;;
38111;SDS011;64011;56.312;44.048;2023-04-24T06:05:55;15.75;;;4.60;;
38111;SDS011;64011;56.312;44.048;2023-04-24T06:07:56;19.42;;;4.82;;
38111;SDS011;64011;56.312;44.048;2023-04-24T06:09:57;14.15;;;5.30;;
38111;SDS011;64011;56.312;44.048;2023-04-24T06:11:58;15.02;;;4.85;;
38111;SDS011;64011;56.312;44.048;2023-04-24T06:14:01;16.20;;;5.40;;
38111;SDS011;64011;56.312;44.048;2023-04-24T06:16:02;14.85;;;5.40;;
38111;SDS011;64011;56.312;44.048;2023-04-24T06:18:03;14.80;;;5.53;;
38111;SDS011;64011;56.312;44.048;2023-04-24T06:20:04;16.92;;;6.30;;
38111;SDS011;64011;56.312;44.048;2023-04-24T06:22:06;16.85;;;6.07;;
38111;SDS011;64011;56.312;44.048;2023-04-24T06:24:06;14.60;;;6.13;;
38111;SDS011;64011;56.312;44.048;2023-04-24T06:26:07;14.30;;;5.95;;
38111;SDS011;64011;56.312;44.048;2023-04-24T06:28:08;14.77;;;6.40;;
38111;SDS011;64011;56.312;44.048;2023-04-24T06:30:11;19.10;;;7.05;;
38111;SDS011;64011;56.312;44.048;2023-04-24T06:32:12;18.13;;;6.65;;
38111;SDS011;64011;56.312;44.048;2023-04-24T06:34:12;22.42;;;8.18;;
38111;SDS011;64011;56.312;44.048;2023-04-24T06:36:13;17.90;;;6.70;;
38111;SDS011;64011;56.312;44.048;2023-04-24T06:38:14;23.30;;;7.90;;
38111;SDS011;64011;56.312;44.048;2023-04-24T06:40:15;19.73;;;7.05;;
38111;SDS011;64011;56.312;44.048;2023-04-24T06:42:16;18.88;;;7.15;;
38111;SDS011;64011;56.312;44.048;2023-04-24T06:44:17;17.38;;;5.72;;
38111;SDS011;64011;56.312;44.048;2023-04-24T06:46:19;20.48;;;6.13;;
38111;SDS011;64011;56.312;44.048;2023-04-24T06:48:20;19.23;;;5.32;;
38111;SDS011;64011;56.312;44.048;2023-04-24T06:50:21;16.70;;;5.05;;
38111;SDS011;64011;56.312;44.048;2023-04-24T06:52:22;13.63;;;4.70;;
38111;SDS011;64011;56.312;44.048;2023-04-24T06:54:23;17.63;;;5.15;;
38111;SDS011;64011;56.312;44.048;2023-04-24T06:56:23;16.95;;;4.60;;
38111;SDS011;64011;56.312;44.048;2023-04-24T06:58:24;15.80;;;4.97;;
38111;SDS011;64011;56.312;44.048;2023-04-24T07:00:25;15.63;;;5.30;;
38111;SDS011;64011;56.312;44.048;2023-04-24T07:02:27;19.77;;;5.15;;
38111;SDS011;64011;56.312;44.048;2023-04-24T07:04:28;13.32;;;4.50;;
38111;SDS011;64011;56.312;44.048;2023-04-24T07:06:29;18.25;;;5.00;;
38111;SDS011;64011;56.312;44.048;2023-04-24T07:08:30;12.52;;;4.72;;
38111;SDS011;64011;56.312;44.048;2023-04-24T07:10:31;13.35;;;4.40;;
38111;SDS011;64011;56.312;44.048;2023-04-24T07:12:32;13.85;;;3.95;;
38111;SDS011;64011;56.312;44.048;2023-04-24T07:14:33;10.43;;;3.80;;
38111;SDS011;64011;56.312;44.048;2023-04-24T07:16:33;13.07;;;3.88;;
38111;SDS011;64011;56.312;44.048;2023-04-24T07:18:36;11.25;;;4.68;;
38111;SDS011;64011;56.312;44.048;2023-04-24T07:20:37;15.60;;;4.80;;
38111;SDS011;64011;56.312;44.048;2023-04-24T07:22:38;10.10;;;4.13;;
38111;SDS011;64011;56.312;44.048;2023-04-24T07:24:38;11.52;;;3.20;;
38111;SDS011;64011;56.312;44.048;2023-04-24T07:26:39;10.70;;;2.90;;
38111;SDS011;64011;56.312;44.048;2023-04-24T07:28:40;9.77;;;3.47;;
38111;SDS011;64011;56.312;44.048;2023-04-24T07:30:41;12.80;;;3.47;;
38111;SDS011;64011;56.312;44.048;2023-04-24T07:32:42;9.88;;;3.35;;
38111;SDS011;64011;56.312;44.048;2023-04-24T07:34:44;12.65;;;3.65;;
38111;SDS011;64011;56.312;44.048;2023-04-24T07:36:45;13.55;;;3.65;;
38111;SDS011;64011;56.312;44.048;2023-04-24T07:38:46;9.07;;;3.40;;
38111;SDS011;64011;56.312;44.048;2023-04-24T07:40:47;11.77;;;4.05;;
38111;SDS011;64011;56.312;44.048;2023-04-24T07:42:48;12.88;;;4.55;;
38111;SDS011;64011;56.312;44.048;2023-04-24T07:44:48;11.55;;;3.95;;
38111;SDS011;64011;56.312;44.048;2023-04-24T07:46:49;11.60;;;3.47;;
38111;SDS011;64011;56.312;44.048;2023-04-24T07:48:50;11.05;;;3.60;;
38111;SDS011;64011;56.312;44.048;2023-04-24T07:50:53;16.60;;;3.58;;
38111;SDS011;64011;56.312;44.048;2023-04-24T07:52:54;9.55;;;2.90;;
38111;SDS011;64011;56.312;44.048;2023-04-24T07:54:54;11.18;;;4.03;;
38111;SDS011;64011;56.312;44.048;2023-04-24T07:56:55;10.63;;;3.83;;
38111;SDS011;64011;56.312;44.048;2023-04-24T07:58:56;16.77;;;4.30;;
38111;SDS011;64011;56.312;44.048;2023-04-24T08:00:57;11.07;;;4.63;;
38111;SDS011;64011;56.312;44.048;2023-04-24T08:02:58;14.80;;;4.45;;
38111;SDS011;64011;56.312;44.048;2023-04-24T08:04:59;14.13;;;4.50;;
38111;SDS011;64011;56.312;44.048;2023-04-24T08:07:01;14.93;;;5.15;;
38111;SDS011;64011;56.312;44.048;2023-04-24T08:09:02;16.58;;;4.57;;
38111;SDS011;64011;56.312;44.048;2023-04-24T08:11:03;11.73;;;4.10;;
38111;SDS011;64011;56.312;44.048;2023-04-24T08:13:04;10.43;;;3.90;;
38111;SDS011;64011;56.312;44.048;2023-04-24T08:15:05;13.50;;;4.30;;
38111;SDS011;64011;56.312;44.048;2023-04-24T08:17:07;13.55;;;4.60;;
38111;SDS011;64011;56.312;44.048;2023-04-24T08:19:08;10.98;;;4.55;;
38111;SDS011;64011;56.312;44.048;2023-04-24T08:21:08;12.07;;;4.80;;
38111;SDS011;64011;56.312;44.048;2023-04-24T08:23:11;14.05;;;4.35;;
38111;SDS011;64011;56.312;44.048;2023-04-24T08:25:11;10.70;;;4.38;;
38111;SDS011;64011;56.312;44.048;2023-04-24T08:27:12;12.25;;;4.80;;
38111;SDS011;64011;56.312;44.048;2023-04-24T08:29:13;11.18;;;4.40;;
38111;SDS011;64011;56.312;44.048;2023-04-24T08:31:14;13.02;;;4.78;;
38111;SDS011;64011;56.312;44.048;2023-04-24T08:33:15;12.25;;;4.32;;
38111;SDS011;64011;56.312;44.048;2023-04-24T08:35:16;11.73;;;4.53;;
38111;SDS011;64011;56.312;44.048;2023-04-24T08:37:17;13.25;;;4.40;;
38111;SDS011;64011;56.312;44.048;2023-04-24T08:39:19;22.48;;;13.82;;
38111;SDS011;64011;56.312;44.048;2023-04-24T08:41:20;12.50;;;4.35;;
38111;SDS011;64011;56.312;44.048;2023-04-24T08:43:22;11.20;;;4.00;;
38111;SDS011;64011;56.312;44.048;2023-04-24T08:45:23;12.02;;;4.45;;
38111;SDS011;64011;56.312;44.048;2023-04-24T08:47:23;12.50;;;4.65;;
38111;SDS011;64011;56.312;44.048;2023-04-24T08:49:25;11.00;;;3.97;;
38111;SDS011;64011;56.312;44.048;2023-04-24T08:51:27;9.85;;;3.63;;
38111;SDS011;64011;56.312;44.048;2023-04-24T08:53:28;10.05;;;3.55;;
38111;SDS011;64011;56.312;44.048;2023-04-24T08:55:32;10.75;;;3.92;;
38111;SDS011;64011;56.312;44.048;2023-04-24T08:57:33;9.68;;;3.47;;
38111;SDS011;64011;56.312;44.048;2023-04-24T08:59:34;9.93;;;3.60;;
38111;SDS011;64011;56.312;44.048;2023-04-24T09:01:35;9.75;;;3.42;;
38111;SDS011;64011;56.312;44.048;2023-04-24T09:03:37;11.52;;;3.45;;
38111;SDS011;64011;56.312;44.048;2023-04-24T09:05:39;11.02;;;3.85;;
38111;SDS011;64011;56.312;44.048;2023-04-24T09:07:40;13.25;;;3.55;;
38111;SDS011;64011;56.312;44.048;2023-04-24T09:09:42;9.32;;;3.20;;
38111;SDS011;64011;56.312;44.048;2023-04-24T09:11:45;8.13;;;3.20;;
38111;SDS011;64011;56.312;44.048;2023-04-24T09:13:47;17.92;;;9.10;;
38111;SDS011;64011;56.312;44.048;2023-04-24T09:15:48;10.15;;;3.30;;
38111;SDS011;64011;56.312;44.048;2023-04-24T09:17:50;11.15;;;3.67;;
38111;SDS011;64011;56.312;44.048;2023-04-24T09:19:51;11.15;;;3.53;;
38111;SDS011;64011;56.312;44.048;2023-04-24T09:21:52;9.52;;;3.38;;
38111;SDS011;64011;56.312;44.048;2023-04-24T09:24:00;11.13;;;3.65;;
38111;SDS011;64011;56.312;44.048;2023-04-24T09:26:02;10.25;;;3.33;;
38111;SDS011;64011;56.312;44.048;2023-04-24T09:28:05;11.98;;;3.70;;
38111;SDS011;64011;56.312;44.048;2023-04-24T09:30:07;13.13;;;4.68;;
38111;SDS011;64011;56.312;44.048;2023-04-24T09:32:18;11.80;;;3.80;;
38111;SDS011;64011;56.312;44.048;2023-04-24T09:34:21;8.68;;;3.20;;
38111;SDS011;64011;56.312;44.048;2023-04-24T09:36:28;9.02;;;2.97;;
38111;SDS011;64011;56.312;44.048;2023-04-24T09:38:31;11.57;;;3.63;;
38111;SDS011;64011;56.312;44.048;2023-04-24T09:40:34;10.80;;;3.30;;
38111;SDS011;64011;56.312;44.048;2023-04-24T09:42:35;10.95;;;3.25;;
38111;SDS011;64011;56.312;44.048;2023-04-24T09:44:37;7.72;;;2.65;;
38111;SDS011;64011;56.312;44.048;2023-04-24T09:46:38;8.40;;;2.58;;
38111;SDS011;64011;56.312;44.048;2023-04-24T09:48:39;10.45;;;2.60;;
38111;SDS011;64011;56.312;44.048;2023-04-24T09:50:40;9.35;;;2.70;;
38111;SDS011;64011;56.312;44.048;2023-04-24T09:52:46;8.18;;;2.90;;
38111;SDS011;64011;56.312;44.048;2023-04-24T09:54:56;12.90;;;3.30;;
38111;SDS011;64011;56.312;44.048;2023-04-24T09:56:56;9.85;;;2.92;;
38111;SDS011;64011;56.312;44.048;2023-04-24T09:59:03;10.85;;;3.00;;
38111;SDS011;64011;56.312;44.048;2023-04-24T10:01:06;7.50;;;2.78;;
38111;SDS011;64011;56.312;44.048;2023-04-24T10:03:07;6.07;;;2.65;;
38111;SDS011;64011;56.312;44.048;2023-04-24T10:05:08;6.63;;;2.47;;
38111;SDS011;64011;56.312;44.048;2023-04-24T10:07:12;9.20;;;2.53;;
38111;SDS011;64011;56.312;44.048;2023-04-24T10:09:15;8.98;;;2.90;;
38111;SDS011;64011;56.312;44.048;2023-04-24T10:11:16;10.88;;;3.38;;
38111;SDS011;64011;56.312;44.048;2023-04-24T10:13:17;7.95;;;2.40;;
38111;SDS011;64011;56.312;44.048;2023-04-24T10:15:18;8.20;;;2.53;;
38111;SDS011;64011;56.312;44.048;2023-04-24T10:17:20;7.80;;;2.75;;
38111;SDS011;64011;56.312;44.048;2023-04-24T10:19:22;7.03;;;3.00;;
38111;SDS011;64011;56.312;44.048;2023-04-24T10:21:26;8.38;;;2.97;;
38111;SDS011;64011;56.312;44.048;2023-04-24T10:23:27;8.82;;;2.50;;
38111;SDS011;64011;56.312;44.048;2023-04-24T10:25:29;12.93;;;2.63;;
38111;SDS011;64011;56.312;44.048;2023-04-24T10:27:31;13.40;;;3.63;;
38111;SDS011;64011;56.312;44.048;2023-04-24T10:29:32;13.68;;;3.10;;
38111;SDS011;64011;56.312;44.048;2023-04-24T10:31:36;10.77;;;2.55;;
38111;SDS011;64011;56.312;44.048;2023-04-24T10:33:39;13.45;;;2.60;;
38111;SDS011;64011;56.312;44.048;2023-04-24T10:35:41;6.70;;;2.55;;
38111;SDS011;64011;56.312;44.048;2023-04-24T10:37:44;7.78;;;2.13;;
38111;SDS011;64011;56.312;44.048;2023-04-24T10:39:47;7.45;;;2.17;;
38111;SDS011;64011;56.312;44.048;2023-04-24T10:41:48;10.65;;;2.63;;
38111;SDS011;64011;56.312;44.048;2023-04-24T10:43:58;9.20;;;2.95;;
38111;SDS011;64011;56.312;44.048;2023-04-24T10:46:05;7.72;;;2.30;;
38111;SDS011;64011;56.312;44.048;2023-04-24T10:48:07;8.85;;;2.90;;
38111;SDS011;64011;56.312;44.048;2023-04-24T10:50:10;8.85;;;2.50;;
38111;SDS011;64011;56.312;44.048;2023-04-24T10:52:11;6.93;;;2.15;;
38111;SDS011;64011;56.312;44.048;2023-04-24T10:54:22;11.90;;;2.45;;
38111;SDS011;64011;56.312;44.048;2023-04-24T10:56:23;7.85;;;2.53;;
38111;SDS011;64011;56.312;44.048;2023-04-24T10:58:24;11.05;;;2.83;;
38111;SDS011;64011;56.312;44.048;2023-04-24T11:00:36;7.03;;;2.40;;
38111;SDS011;64011;56.312;44.048;2023-04-24T11:02:37;7.80;;;2.40;;
38111;SDS011;64011;56.312;44.048;2023-04-24T11:04:40;7.28;;;2.50;;
38111;SDS011;64011;56.312;44.048;2023-04-24T11:06:42;8.60;;;3.20;;
38111;SDS011;64011;56.312;44.048;2023-04-24T11:08:43;7.70;;;2.60;;
38111;SDS011;64011;56.312;44.048;2023-04-24T11:10:45;7.97;;;2.40;;
38111;SDS011;64011;56.312;44.048;2023-04-24T11:12:46;10.27;;;2.63;;
38111;SDS011;64011;56.312;44.048;2023-04-24T11:17:26;6.32;;;2.25;;
38111;SDS011;64011;56.312;44.048;2023-04-24T11:19:29;7.47;;;2.22;;
38111;SDS011;64011;56.312;44.048;2023-04-24T11:21:38;8.40;;;2.80;;
38111;SDS011;64011;56.312;44.048;2023-04-24T11:23:42;11.77;;;2.92;;
38111;SDS011;64011;56.312;44.048;2023-04-24T11:25:43;9.48;;;2.90;;
38111;SDS011;64011;56.312;44.048;2023-04-24T11:27:44;7.93;;;2.53;;
38111;SDS011;64011;56.312;44.048;2023-04-24T11:29:46;10.40;;;2.80;;
38111;SDS011;64011;56.312;44.048;2023-04-24T11:31:48;9.45;;;2.60;;
38111;SDS011;64011;56.312;44.048;2023-04-24T11:33:49;8.38;;;2.58;;
38111;SDS011;64011;56.312;44.048;2023-04-24T11:35:49;8.50;;;2.60;;
38111;SDS011;64011;56.312;44.048;2023-04-24T11:37:52;12.13;;;2.55;;
38111;SDS011;64011;56.312;44.048;2023-04-24T11:39:55;6.38;;;2.20;;
38111;SDS011;64011;56.312;44.048;2023-04-24T11:42:01;6.10;;;2.40;;
38111;SDS011;64011;56.312;44.048;2023-04-24T11:44:03;7.72;;;2.17;;
38111;SDS011;64011;56.312;44.048;2023-04-24T11:46:06;7.55;;;2.20;;
38111;SDS011;64011;56.312;44.048;2023-04-24T11:48:07;4.72;;;2.15;;
38111;SDS011;64011;56.312;44.048;2023-04-24T11:50:08;5.65;;;2.13;;
38111;SDS011;64011;56.312;44.048;2023-04-24T11:52:10;10.48;;;2.47;;
38111;SDS011;64011;56.312;44.048;2023-04-24T11:54:11;17.88;;;7.85;;
38111;SDS011;64011;56.312;44.048;2023-04-24T11:56:16;10.70;;;2.60;;
38111;SDS011;64011;56.312;44.048;2023-04-24T11:58:20;6.40;;;2.47;;